Murzzuschlag, Austria
Current Conditions -  °F | °C
As of 8:20 PM on Friday 28 Nov 2014 (Local Time) from LOWG Reporting Station
Haze Haze  
Wind Chill: 36°   Ceiling: 700
Heat Index: 36°   Visibility: 3mi
Dew Point: 36°   Wind: 2mph
Humidity: 100%   Direction: NA
Pressure: 30.06"   Gusts: NA
Location:  47.61°N, 15.67°E
Report Text: LOWG 281820Z VRB02KT 5000 BR FEW001 SCT004 OVC007 02/02 Q1018 TEMPO 4000 SCT004 BKN006
Loading
Personal Weather Stations






























Interactive Weather Map New forecast layout! Learn more

10-Day Weather Forecast

Advertisements
Track Severe Weather on mobile